• Join FlightAware (Why Join?)
  • Login
  • US Flag 
06:33PM EDT


 

Airport Tracker/Info


-or-


 

Live Flight TrackerFlight Track Log ✈ CSC8978 ✈ 20-Aug-2014 ✈ RCSS / TSA - ZUUU / CTU

Flight Track Log - Related Links

Times and Time Zones

All times are in EDT time to prevent confusion due to time zone crossing. See the CSC8978 flight status page for this flight to view local times or setup timezone preferences in your user account.

Time Position Orientation Groundspeed Altitude Reporting Facility
EDT Latitude Longitude Course Direction KTS MPH feet Rate Location/Type
06:05AM 25.2348 121.1293 293° West  Level Estimated
06:06AM 25.2677 121.0446 293° West  Level Estimated
06:07AM 25.3006 120.9600 293° West  Level Estimated
06:08AM 25.3334 120.8753 293° West  Level Estimated
06:09AM 25.3662 120.7905 293° West  Level Estimated
06:10AM 25.3989 120.7057 293° West  Level Estimated
06:11AM 25.4316 120.6209 293° West  Level Estimated
06:12AM 25.4643 120.5360 293° West  Level Estimated
06:13AM 25.4968 120.4510 293° West  Level Estimated
06:14AM 25.5294 120.3661 293° West  Level Estimated
06:15AM 25.5619 120.2810 293° West  Level Estimated
06:16AM 25.5943 120.1959 293° West  Level Estimated
06:17AM 25.6267 120.1108 293° West  Level Estimated
06:18AM 25.6590 120.0257 293° West  Level Estimated
06:19AM 25.6913 119.9404 293° West  Level Estimated
06:20AM 25.7236 119.8552 293° West  Level Estimated
06:21AM 25.7558 119.7699 293° West  Level Estimated
06:22AM 25.7879 119.6845 293° West  Level Estimated
06:23AM 25.8200 119.5991 293° West  Level Estimated
06:24AM 25.8520 119.5137 293° West  Level Estimated
06:25AM 25.8840 119.4282 293° West  Level Estimated
06:26AM 25.9160 119.3426 293° West  Level Estimated
06:27AM 25.9478 119.2570 293° West  Level Estimated
06:28AM 25.9797 119.1714 292° West  Level Estimated
06:29AM 26.0115 119.0857 292° West  Level Estimated
06:30AM 26.0432 119.0000 292° West  Level Estimated
06:31AM 26.0749 118.9142 292° West  Level Estimated
06:32AM 26.1066 118.8284 292° West  Level Estimated
06:33AM 26.1381 118.7426 292° West  Level Estimated
06:34AM 26.1697 118.6566 292° West  Level Estimated
06:35AM 26.2012 118.5707 292° West  Level Estimated
06:36AM 26.2326 118.4847 292° West  Level Estimated
06:37AM 26.2640 118.3986 292° West  Level Estimated
06:38AM 26.2953 118.3125 292° West  Level Estimated
06:39AM 26.3266 118.2264 292° West  Level Estimated
06:40AM 26.3578 118.1402 292° West  Level Estimated
06:41AM 26.3890 118.0540 292° West  Level Estimated
06:42AM 26.4201 117.9677 292° West  Level Estimated
06:43AM 26.4512 117.8813 292° West  Level Estimated
06:44AM 26.4822 117.7950 292° West  Level Estimated
06:45AM 26.5132 117.7085 292° West  Level Estimated
06:46AM 26.5441 117.6221 292° West  Level Estimated
06:47AM 26.5750 117.5356 292° West  Level Estimated
06:48AM 26.6058 117.4490 292° West  Level Estimated
06:49AM 26.6366 117.3624 292° West  Level Estimated
06:50AM 26.6673 117.2757 292° West  Level Estimated
06:51AM 26.6979 117.1890 292° West  Level Estimated
06:52AM 26.7285 117.1023 292° West  Level Estimated
06:53AM 26.7591 117.0155 292° West  Level Estimated
06:54AM 26.7896 116.9286 291° West  Level Estimated
06:55AM 26.8200 116.8418 291° West  Level Estimated
06:56AM 26.8504 116.7548 291° West  Level Estimated
06:57AM 26.8807 116.6678 291° West  Level Estimated
06:58AM 26.9110 116.5808 291° West  Level Estimated
06:59AM 26.9413 116.4937 291° West  Level Estimated
07:00AM 26.9714 116.4066 291° West  Level Estimated
07:01AM 27.0016 116.3195 291° West  Level Estimated
07:02AM 27.0316 116.2322 291° West  Level Estimated
07:03AM 27.0616 116.1450 291° West  Level Estimated
07:04AM 27.0916 116.0577 291° West  Level Estimated
07:05AM 27.1215 115.9703 291° West  Level Estimated
07:06AM 27.1514 115.8829 291° West  Level Estimated
07:07AM 27.1812 115.7955 291° West  Level Estimated
07:08AM 27.2109 115.7080 291° West  Level Estimated
07:09AM 27.2406 115.6204 291° West  Level Estimated
07:10AM 27.2703 115.5328 291° West  Level Estimated
07:11AM 27.2999 115.4452 291° West  Level Estimated
07:12AM 27.3294 115.3575 291° West  Level Estimated
07:13AM 27.3589 115.2698 291° West  Level Estimated
07:14AM 27.3883 115.1820 291° West  Level Estimated
07:15AM 27.4176 115.0942 291° West  Level Estimated
07:16AM 27.4469 115.0063 291° West  Level Estimated
07:17AM 27.4762 114.9184 291° West  Level Estimated
07:18AM 27.5054 114.8304 291° West  Level Estimated
07:19AM 27.5345 114.7424 290° West  Level Estimated
07:20AM 27.5636 114.6544 290° West  Level Estimated
07:21AM 27.5927 114.5663 290° West  Level Estimated
07:22AM 27.6216 114.4781 290° West  Level Estimated
07:23AM 27.6506 114.3899 290° West  Level Estimated
07:24AM 27.6794 114.3017 290° West  Level Estimated
07:25AM 27.7082 114.2134 290° West  Level Estimated
07:26AM 27.7370 114.1251 290° West  Level Estimated
07:27AM 27.7657 114.0367 290° West  Level Estimated
07:28AM 27.7943 113.9482 290° West  Level Estimated
07:29AM 27.8229 113.8598 290° West  Level Estimated
07:30AM 27.8514 113.7713 290° West  Level Estimated
07:31AM 27.8799 113.6827 290° West  Level Estimated
07:32AM 27.9083 113.5941 290° West  Level Estimated
07:33AM 27.9367 113.5054 290° West  Level Estimated
07:34AM 27.9650 113.4167 290° West  Level Estimated
07:35AM 27.9932 113.3279 290° West  Level Estimated
07:36AM 28.0214 113.2392 290° West  Level Estimated
07:37AM 28.0495 113.1503 290° West  Level Estimated
07:38AM 28.0776 113.0614 290° West  Level Estimated
07:39AM 28.1056 112.9725 290° West  Level Estimated
07:40AM 28.1336 112.8835 290° West  Level Estimated
07:41AM 28.1615 112.7944 290° West  Level Estimated
07:42AM 28.1893 112.7054 290° West  Level Estimated
07:43AM 28.2171 112.6162 290° West  Level Estimated
07:44AM 28.2449 112.5271 289° West  Level Estimated
07:45AM 28.2725 112.4379 289° West  Level Estimated
07:46AM 28.3001 112.3486 289° West  Level Estimated
07:47AM 28.3277 112.2593 289° West  Level Estimated
07:48AM 28.3552 112.1699 289° West  Level Estimated
07:49AM 28.3826 112.0805 289° West  Level Estimated
07:50AM 28.4100 111.9911 289° West  Level Estimated
07:51AM 28.4373 111.9016 289° West  Level Estimated
07:52AM 28.4646 111.8120 289° West  Level Estimated
07:53AM 28.4918 111.7225 289° West  Level Estimated
07:54AM 28.5189 111.6328 289° West  Level Estimated
07:55AM 28.5460 111.5431 289° West  Level Estimated
07:56AM 28.5730 111.4534 289° West  Level Estimated
07:57AM 28.6000 111.3636 289° West  Level Estimated
07:58AM 28.6269 111.2738 289° West  Level Estimated
07:59AM 28.6538 111.1840 289° West  Level Estimated
08:00AM 28.6806 111.0940 289° West  Level Estimated
08:01AM 28.7073 111.0041 289° West  Level Estimated
08:02AM 28.7340 110.9141 289° West  Level Estimated
08:03AM 28.7606 110.8240 289° West  Level Estimated
08:04AM 28.7871 110.7339 289° West  Level Estimated
08:05AM 28.8136 110.6438 289° West  Level Estimated
08:06AM 28.8401 110.5536 289° West  Level Estimated
08:07AM 28.8664 110.4634 288° West  Level Estimated
08:08AM 28.8927 110.3731 288° West  Level Estimated
08:09AM 28.9190 110.2828 288° West  Level Estimated
08:10AM 28.9452 110.1924 288° West  Level Estimated
08:11AM 28.9713 110.1020 288° West  Level Estimated
08:12AM 28.9974 110.0115 288° West  Level Estimated
08:13AM 29.0234 109.9210 288° West  Level Estimated
08:14AM 29.0494 109.8305 288° West  Level Estimated
08:15AM 29.0752 109.7399 288° West  Level Estimated
08:16AM 29.1011 109.6492 288° West  Level Estimated
08:17AM 29.1268 109.5585 288° West  Level Estimated
08:18AM 29.1525 109.4678 288° West  Level Estimated
08:19AM 29.1782 109.3770 288° West  Level Estimated
08:20AM 29.2038 109.2862 288° West  Level Estimated
08:21AM 29.2293 109.1954 288° West  Level Estimated
08:22AM 29.2547 109.1044 288° West  Level Estimated
08:23AM 29.2801 109.0135 288° West  Level Estimated
08:24AM 29.3055 108.9225 288° West  Level Estimated
08:25AM 29.3308 108.8314 288° West  Level Estimated
08:26AM 29.3560 108.7403 288° West  Level Estimated
08:27AM 29.3811 108.6492 288° West  Level Estimated
08:28AM 29.4062 108.5580 288° West  Level Estimated
08:29AM 29.4312 108.4668 288° West  Level Estimated
08:30AM 29.4562 108.3755 287° West  Level Estimated
08:31AM 29.4811 108.2842 287° West  Level Estimated
08:32AM 29.5060 108.1928 287° West  Level Estimated
08:33AM 29.5307 108.1014 287° West  Level Estimated
08:34AM 29.5555 108.0099 287° West  Level Estimated
08:35AM 29.5801 107.9184 287° West  Level Estimated
08:36AM 29.6047 107.8269 287° West  Level Estimated
08:37AM 29.6292 107.7353 287° West  Level Estimated
08:38AM 29.6537 107.6437 287° West  Level Estimated
08:39AM 29.6781 107.5520 287° West  Level Estimated
08:40AM 29.7024 107.4603 287° West  Level Estimated
08:41AM 29.7267 107.3685 287° West  Level Estimated
08:42AM 29.7509 107.2767 287° West  Level Estimated
08:43AM 29.7751 107.1849 287° West  Level Estimated
08:44AM 29.7992 107.0930 287° West  Level Estimated
08:45AM 29.8232 107.0010 287° West  Level Estimated
08:46AM 29.8471 106.9090 287° West  Level Estimated
08:47AM 29.8710 106.8170 287° West  Level Estimated
08:48AM 29.8948 106.7249 287° West  Level Estimated
08:49AM 29.9186 106.6328 287° West  Level Estimated
08:50AM 29.9423 106.5406 287° West  Level Estimated
08:51AM 29.9660 106.4484 287° West  Level Estimated
08:52AM 29.9895 106.3562 286° West  Level Estimated
08:53AM 30.0130 106.2639 286° West  Level Estimated
08:54AM 30.0365 106.1715 286° West  Level Estimated
08:55AM 30.0599 106.0792 286° West  Level Estimated
08:56AM 30.0832 105.9867 286° West  Level Estimated
08:57AM 30.1064 105.8943 286° West  Level Estimated
08:58AM 30.1296 105.8018 286° West  Level Estimated
08:59AM 30.1527 105.7092 286° West  Level Estimated
09:00AM 30.1758 105.6166 286° West  Level Estimated
09:01AM 30.1988 105.5240 286° West  Level Estimated
09:02AM 30.2217 105.4313 286° West  Level Estimated
09:03AM 30.2446 105.3385 286° West  Level Estimated
09:04AM 30.2674 105.2458 286° West  Level Estimated
09:05AM 30.2901 105.1530 286° West  Level Estimated
09:06AM 30.3128 105.0601 286° West  Level Estimated
09:07AM 30.3354 104.9672 286° West  Level Estimated
09:08AM 30.3579 104.8743 286° West  Level Estimated
09:09AM 30.3804 104.7813 286° West  Level Estimated
09:10AM 30.4028 104.6882 286° West  Level Estimated
09:11AM 30.4251 104.5952 286° West  Level Estimated
09:12AM 30.4474 104.5021 286° West  Level Estimated
09:13AM 30.4696 104.4089 285° West  Level Estimated
09:14AM 30.4917 104.3157 285° West  Level Estimated
09:15AM 30.5138 104.2225 285° West  Level Estimated
09:16AM 30.5358 104.1292 285° West  Level Estimated
09:17AM 30.5577 104.0359 285° West  Level Estimated
09:18AM 30.5785 103.9471 285° West  Level Estimated
09:19AM 30.5785 103.9471 North  Level Estimated
09:20AM 30.5785 103.9471 North  Level Estimated
09:21AM 30.5785 103.9471 North  Level Estimated
09:22AM 30.5785 103.9471 North  Level Estimated
09:23AM 30.5785 103.9471 North  Level Estimated
09:24AM 30.5785 103.9471 North  Level Estimated
09:25AM 30.5785 103.9471 North  Level Estimated
09:26AM 30.5785 103.9471 North  Level Estimated
09:27AM 30.5785 103.9471 North  Level Estimated
09:28AM 30.5785 103.9471 North  Level Estimated
09:29AM 30.5785 103.9471 North  Level Estimated
09:30AM 30.5785 103.9471 North  Level Estimated
09:31AM 30.5785 103.9471 North  Level Estimated
09:32AM 30.5785 103.9471 North  Level Estimated
09:33AM 30.5785 103.9471 North  Level Estimated
09:34AM 30.5785 103.9471 North  Level Estimated